sensor_id;sensor_type;location;lat;lon;timestamp;P1;durP1;ratioP1;P2;durP2;ratioP2
2438;SDS011;14509;47.992;7.848;2023-10-13T00:01:38;8.65;;;3.90;;
2438;SDS011;14509;47.992;7.848;2023-10-13T00:03:40;5.25;;;3.40;;
2438;SDS011;14509;47.992;7.848;2023-10-13T00:05:42;6.40;;;3.63;;
2438;SDS011;14509;47.992;7.848;2023-10-13T00:07:45;5.68;;;3.80;;
2438;SDS011;14509;47.992;7.848;2023-10-13T00:09:45;4.95;;;3.55;;
2438;SDS011;14509;47.992;7.848;2023-10-13T00:11:47;7.57;;;3.97;;
2438;SDS011;14509;47.992;7.848;2023-10-13T00:13:51;5.40;;;3.85;;
2438;SDS011;14509;47.992;7.848;2023-10-13T00:15:54;5.20;;;3.73;;
2438;SDS011;14509;47.992;7.848;2023-10-13T00:17:59;5.37;;;3.70;;
2438;SDS011;14509;47.992;7.848;2023-10-13T00:20:00;6.60;;;4.28;;
2438;SDS011;14509;47.992;7.848;2023-10-13T00:22:11;6.13;;;4.35;;
2438;SDS011;14509;47.992;7.848;2023-10-13T00:24:16;6.43;;;4.32;;
2438;SDS011;14509;47.992;7.848;2023-10-13T00:26:24;5.35;;;4.20;;
2438;SDS011;14509;47.992;7.848;2023-10-13T00:28:28;5.03;;;4.00;;
2438;SDS011;14509;47.992;7.848;2023-10-13T00:30:44;7.90;;;4.32;;
2438;SDS011;14509;47.992;7.848;2023-10-13T00:32:51;6.97;;;3.85;;
2438;SDS011;14509;47.992;7.848;2023-10-13T00:34:55;5.13;;;4.20;;
2438;SDS011;14509;47.992;7.848;2023-10-13T00:36:57;6.53;;;4.22;;
2438;SDS011;14509;47.992;7.848;2023-10-13T00:39:16;6.03;;;4.40;;
2438;SDS011;14509;47.992;7.848;2023-10-13T00:41:18;5.07;;;4.00;;
2438;SDS011;14509;47.992;7.848;2023-10-13T00:43:44;6.50;;;4.20;;
2438;SDS011;14509;47.992;7.848;2023-10-13T00:45:47;6.80;;;4.40;;
2438;SDS011;14509;47.992;7.848;2023-10-13T00:47:57;6.30;;;4.03;;
2438;SDS011;14509;47.992;7.848;2023-10-13T00:50:01;5.22;;;4.00;;
2438;SDS011;14509;47.992;7.848;2023-10-13T00:52:04;5.35;;;4.07;;
2438;SDS011;14509;47.992;7.848;2023-10-13T00:54:05;5.85;;;3.90;;
2438;SDS011;14509;47.992;7.848;2023-10-13T00:56:11;6.07;;;4.00;;
2438;SDS011;14509;47.992;7.848;2023-10-13T00:58:19;6.35;;;4.15;;
2438;SDS011;14509;47.992;7.848;2023-10-13T01:00:22;5.57;;;4.57;;
2438;SDS011;14509;47.992;7.848;2023-10-13T01:02:26;7.68;;;4.63;;
2438;SDS011;14509;47.992;7.848;2023-10-13T01:04:38;5.93;;;4.30;;
2438;SDS011;14509;47.992;7.848;2023-10-13T01:06:39;5.85;;;4.10;;
2438;SDS011;14509;47.992;7.848;2023-10-13T01:08:41;5.78;;;4.18;;
2438;SDS011;14509;47.992;7.848;2023-10-13T01:10:44;6.65;;;4.00;;
2438;SDS011;14509;47.992;7.848;2023-10-13T01:12:46;5.82;;;4.05;;
2438;SDS011;14509;47.992;7.848;2023-10-13T01:14:47;5.22;;;4.10;;
2438;SDS011;14509;47.992;7.848;2023-10-13T01:16:49;6.40;;;4.60;;
2438;SDS011;14509;47.992;7.848;2023-10-13T01:18:54;5.00;;;4.15;;
2438;SDS011;14509;47.992;7.848;2023-10-13T01:20:59;5.40;;;4.30;;
2438;SDS011;14509;47.992;7.848;2023-10-13T01:23:07;7.18;;;3.80;;
2438;SDS011;14509;47.992;7.848;2023-10-13T01:25:18;5.65;;;4.03;;
2438;SDS011;14509;47.992;7.848;2023-10-13T01:27:19;7.13;;;4.40;;
2438;SDS011;14509;47.992;7.848;2023-10-13T01:29:25;6.70;;;4.53;;
2438;SDS011;14509;47.992;7.848;2023-10-13T01:31:29;6.53;;;4.35;;
2438;SDS011;14509;47.992;7.848;2023-10-13T01:33:37;6.53;;;4.20;;
2438;SDS011;14509;47.992;7.848;2023-10-13T01:35:38;6.57;;;4.40;;
2438;SDS011;14509;47.992;7.848;2023-10-13T01:37:42;7.20;;;4.28;;
2438;SDS011;14509;47.992;7.848;2023-10-13T01:39:45;5.85;;;4.30;;
2438;SDS011;14509;47.992;7.848;2023-10-13T01:41:47;7.63;;;4.07;;
2438;SDS011;14509;47.992;7.848;2023-10-13T01:43:55;5.18;;;4.28;;
2438;SDS011;14509;47.992;7.848;2023-10-13T01:45:58;6.90;;;4.80;;
2438;SDS011;14509;47.992;7.848;2023-10-13T01:47:58;7.25;;;4.28;;
2438;SDS011;14509;47.992;7.848;2023-10-13T01:50:01;6.93;;;4.45;;
2438;SDS011;14509;47.992;7.848;2023-10-13T01:52:13;9.80;;;5.30;;
2438;SDS011;14509;47.992;7.848;2023-10-13T01:54:16;9.23;;;4.60;;
2438;SDS011;14509;47.992;7.848;2023-10-13T01:56:20;7.07;;;3.90;;
2438;SDS011;14509;47.992;7.848;2023-10-13T01:58:23;7.05;;;4.50;;
2438;SDS011;14509;47.992;7.848;2023-10-13T02:00:26;6.40;;;4.38;;
2438;SDS011;14509;47.992;7.848;2023-10-13T02:02:31;7.53;;;4.37;;
2438;SDS011;14509;47.992;7.848;2023-10-13T02:04:32;5.43;;;4.10;;
2438;SDS011;14509;47.992;7.848;2023-10-13T02:06:34;6.13;;;3.50;;
2438;SDS011;14509;47.992;7.848;2023-10-13T02:08:36;4.55;;;4.15;;
2438;SDS011;14509;47.992;7.848;2023-10-13T02:10:44;5.63;;;4.60;;
2438;SDS011;14509;47.992;7.848;2023-10-13T02:12:47;6.63;;;4.72;;
2438;SDS011;14509;47.992;7.848;2023-10-13T02:14:48;7.25;;;4.45;;
2438;SDS011;14509;47.992;7.848;2023-10-13T02:16:49;5.93;;;4.65;;
2438;SDS011;14509;47.992;7.848;2023-10-13T02:18:55;5.68;;;4.40;;
2438;SDS011;14509;47.992;7.848;2023-10-13T02:21:01;6.00;;;3.92;;
2438;SDS011;14509;47.992;7.848;2023-10-13T02:23:05;7.07;;;4.90;;
2438;SDS011;14509;47.992;7.848;2023-10-13T02:25:10;6.53;;;4.30;;
2438;SDS011;14509;47.992;7.848;2023-10-13T02:27:19;6.80;;;4.70;;
2438;SDS011;14509;47.992;7.848;2023-10-13T02:29:24;6.00;;;4.50;;
2438;SDS011;14509;47.992;7.848;2023-10-13T02:31:27;6.32;;;4.85;;
2438;SDS011;14509;47.992;7.848;2023-10-13T02:33:28;6.05;;;4.10;;
2438;SDS011;14509;47.992;7.848;2023-10-13T02:35:30;5.18;;;4.57;;
2438;SDS011;14509;47.992;7.848;2023-10-13T02:37:43;7.63;;;4.45;;
2438;SDS011;14509;47.992;7.848;2023-10-13T02:39:54;6.30;;;4.88;;
2438;SDS011;14509;47.992;7.848;2023-10-13T02:41:58;7.60;;;5.25;;
2438;SDS011;14509;47.992;7.848;2023-10-13T02:43:59;5.45;;;4.30;;
2438;SDS011;14509;47.992;7.848;2023-10-13T02:46:03;6.10;;;4.47;;
2438;SDS011;14509;47.992;7.848;2023-10-13T02:48:05;6.68;;;4.50;;
2438;SDS011;14509;47.992;7.848;2023-10-13T02:50:12;6.97;;;4.28;;
2438;SDS011;14509;47.992;7.848;2023-10-13T02:52:18;7.15;;;4.30;;
2438;SDS011;14509;47.992;7.848;2023-10-13T02:54:20;7.15;;;4.28;;
2438;SDS011;14509;47.992;7.848;2023-10-13T02:56:22;7.53;;;4.03;;
2438;SDS011;14509;47.992;7.848;2023-10-13T02:58:23;7.10;;;3.90;;
2438;SDS011;14509;47.992;7.848;2023-10-13T03:00:38;9.05;;;4.65;;
2438;SDS011;14509;47.992;7.848;2023-10-13T03:02:42;5.93;;;4.40;;
2438;SDS011;14509;47.992;7.848;2023-10-13T03:04:46;5.43;;;4.00;;
2438;SDS011;14509;47.992;7.848;2023-10-13T03:06:47;6.90;;;3.92;;
2438;SDS011;14509;47.992;7.848;2023-10-13T03:08:51;6.25;;;4.10;;
2438;SDS011;14509;47.992;7.848;2023-10-13T03:10:52;7.30;;;3.90;;
2438;SDS011;14509;47.992;7.848;2023-10-13T03:12:55;8.48;;;4.15;;
2438;SDS011;14509;47.992;7.848;2023-10-13T03:14:56;5.82;;;3.60;;
2438;SDS011;14509;47.992;7.848;2023-10-13T03:17:10;8.02;;;4.10;;
2438;SDS011;14509;47.992;7.848;2023-10-13T03:19:16;7.47;;;4.00;;
2438;SDS011;14509;47.992;7.848;2023-10-13T03:21:20;7.60;;;4.50;;
2438;SDS011;14509;47.992;7.848;2023-10-13T03:23:31;6.80;;;4.10;;
2438;SDS011;14509;47.992;7.848;2023-10-13T03:25:45;6.50;;;4.40;;
2438;SDS011;14509;47.992;7.848;2023-10-13T03:27:51;7.78;;;4.63;;
2438;SDS011;14509;47.992;7.848;2023-10-13T03:30:12;4.68;;;4.03;;
2438;SDS011;14509;47.992;7.848;2023-10-13T03:32:15;6.67;;;4.60;;
2438;SDS011;14509;47.992;7.848;2023-10-13T03:34:19;5.63;;;4.25;;
2438;SDS011;14509;47.992;7.848;2023-10-13T03:36:20;8.85;;;4.38;;
2438;SDS011;14509;47.992;7.848;2023-10-13T03:38:48;7.65;;;4.80;;
2438;SDS011;14509;47.992;7.848;2023-10-13T03:40:55;5.18;;;4.68;;
2438;SDS011;14509;47.992;7.848;2023-10-13T03:42:57;5.85;;;4.18;;
2438;SDS011;14509;47.992;7.848;2023-10-13T03:45:04;7.25;;;4.60;;
2438;SDS011;14509;47.992;7.848;2023-10-13T03:47:10;6.40;;;4.80;;
2438;SDS011;14509;47.992;7.848;2023-10-13T03:49:20;7.53;;;4.60;;
2438;SDS011;14509;47.992;7.848;2023-10-13T03:51:24;7.15;;;4.30;;
2438;SDS011;14509;47.992;7.848;2023-10-13T03:53:31;6.40;;;4.82;;
2438;SDS011;14509;47.992;7.848;2023-10-13T03:55:34;6.00;;;4.00;;
2438;SDS011;14509;47.992;7.848;2023-10-13T03:57:36;6.15;;;4.18;;
2438;SDS011;14509;47.992;7.848;2023-10-13T03:59:40;5.97;;;4.30;;
2438;SDS011;14509;47.992;7.848;2023-10-13T04:01:47;6.23;;;3.80;;
2438;SDS011;14509;47.992;7.848;2023-10-13T04:03:58;8.18;;;4.90;;
2438;SDS011;14509;47.992;7.848;2023-10-13T04:06:05;8.50;;;4.30;;
2438;SDS011;14509;47.992;7.848;2023-10-13T04:08:08;7.25;;;4.15;;
2438;SDS011;14509;47.992;7.848;2023-10-13T04:10:27;9.15;;;4.60;;
2438;SDS011;14509;47.992;7.848;2023-10-13T04:13:02;6.20;;;4.10;;
2438;SDS011;14509;47.992;7.848;2023-10-13T04:15:33;7.43;;;4.07;;
2438;SDS011;14509;47.992;7.848;2023-10-13T04:17:43;6.18;;;4.55;;
2438;SDS011;14509;47.992;7.848;2023-10-13T04:19:46;6.00;;;4.13;;
2438;SDS011;14509;47.992;7.848;2023-10-13T04:22:03;6.00;;;4.22;;
2438;SDS011;14509;47.992;7.848;2023-10-13T04:24:14;8.10;;;4.90;;
2438;SDS011;14509;47.992;7.848;2023-10-13T04:26:28;6.82;;;4.60;;
2438;SDS011;14509;47.992;7.848;2023-10-13T04:28:37;7.20;;;4.63;;
2438;SDS011;14509;47.992;7.848;2023-10-13T04:30:51;8.02;;;4.47;;
2438;SDS011;14509;47.992;7.848;2023-10-13T04:32:59;5.30;;;4.10;;
2438;SDS011;14509;47.992;7.848;2023-10-13T04:35:23;7.97;;;4.10;;
2438;SDS011;14509;47.992;7.848;2023-10-13T04:37:31;8.23;;;4.70;;
2438;SDS011;14509;47.992;7.848;2023-10-13T04:39:48;7.43;;;4.38;;
2438;SDS011;14509;47.992;7.848;2023-10-13T04:41:56;6.73;;;4.60;;
2438;SDS011;14509;47.992;7.848;2023-10-13T04:43:58;5.78;;;3.72;;
2438;SDS011;14509;47.992;7.848;2023-10-13T04:46:23;6.82;;;4.28;;
2438;SDS011;14509;47.992;7.848;2023-10-13T04:48:35;7.60;;;4.40;;
2438;SDS011;14509;47.992;7.848;2023-10-13T04:50:39;8.00;;;4.40;;
2438;SDS011;14509;47.992;7.848;2023-10-13T04:52:46;8.27;;;4.38;;
2438;SDS011;14509;47.992;7.848;2023-10-13T04:55:01;7.07;;;3.90;;
2438;SDS011;14509;47.992;7.848;2023-10-13T04:57:17;6.72;;;4.10;;
2438;SDS011;14509;47.992;7.848;2023-10-13T04:59:33;6.47;;;4.13;;
2438;SDS011;14509;47.992;7.848;2023-10-13T05:01:37;5.95;;;4.13;;
2438;SDS011;14509;47.992;7.848;2023-10-13T05:03:57;6.78;;;4.75;;
2438;SDS011;14509;47.992;7.848;2023-10-13T05:06:21;5.93;;;4.10;;
2438;SDS011;14509;47.992;7.848;2023-10-13T05:08:53;5.45;;;3.70;;
2438;SDS011;14509;47.992;7.848;2023-10-13T05:11:13;5.50;;;3.80;;
2438;SDS011;14509;47.992;7.848;2023-10-13T05:13:32;6.32;;;3.60;;
2438;SDS011;14509;47.992;7.848;2023-10-13T05:15:51;7.07;;;4.30;;
2438;SDS011;14509;47.992;7.848;2023-10-13T05:18:10;6.60;;;4.10;;
2438;SDS011;14509;47.992;7.848;2023-10-13T05:20:30;7.72;;;4.60;;
2438;SDS011;14509;47.992;7.848;2023-10-13T05:22:49;7.00;;;4.53;;
2438;SDS011;14509;47.992;7.848;2023-10-13T05:25:10;10.57;;;4.97;;
2438;SDS011;14509;47.992;7.848;2023-10-13T05:27:25;6.72;;;4.72;;
2438;SDS011;14509;47.992;7.848;2023-10-13T05:29:45;6.32;;;4.40;;
2438;SDS011;14509;47.992;7.848;2023-10-13T05:32:14;6.72;;;4.07;;
2438;SDS011;14509;47.992;7.848;2023-10-13T05:34:33;5.95;;;3.70;;
2438;SDS011;14509;47.992;7.848;2023-10-13T05:36:53;6.03;;;4.18;;
2438;SDS011;14509;47.992;7.848;2023-10-13T05:39:12;6.88;;;4.50;;
2438;SDS011;14509;47.992;7.848;2023-10-13T05:41:33;11.00;;;4.35;;
2438;SDS011;14509;47.992;7.848;2023-10-13T05:43:53;5.35;;;4.10;;
2438;SDS011;14509;47.992;7.848;2023-10-13T05:46:13;9.60;;;4.88;;
2438;SDS011;14509;47.992;7.848;2023-10-13T05:48:32;10.57;;;4.30;;
2438;SDS011;14509;47.992;7.848;2023-10-13T05:51:09;7.57;;;4.22;;
2438;SDS011;14509;47.992;7.848;2023-10-13T05:53:34;8.00;;;3.97;;
2438;SDS011;14509;47.992;7.848;2023-10-13T05:55:53;6.80;;;3.97;;
2438;SDS011;14509;47.992;7.848;2023-10-13T05:58:20;7.15;;;4.18;;
2438;SDS011;14509;47.992;7.848;2023-10-13T06:00:41;6.10;;;4.00;;
2438;SDS011;14509;47.992;7.848;2023-10-13T06:03:00;5.63;;;4.40;;
2438;SDS011;14509;47.992;7.848;2023-10-13T06:05:20;4.90;;;3.95;;
2438;SDS011;14509;47.992;7.848;2023-10-13T06:07:40;7.03;;;3.80;;
2438;SDS011;14509;47.992;7.848;2023-10-13T06:09:59;8.13;;;4.70;;
2438;SDS011;14509;47.992;7.848;2023-10-13T06:12:18;10.35;;;4.20;;
2438;SDS011;14509;47.992;7.848;2023-10-13T06:14:39;12.73;;;4.85;;
2438;SDS011;14509;47.992;7.848;2023-10-13T06:16:58;9.98;;;4.25;;
2438;SDS011;14509;47.992;7.848;2023-10-13T06:19:17;7.55;;;3.72;;
2438;SDS011;14509;47.992;7.848;2023-10-13T06:21:37;7.22;;;4.07;;
2438;SDS011;14509;47.992;7.848;2023-10-13T06:23:56;8.95;;;3.92;;
2438;SDS011;14509;47.992;7.848;2023-10-13T06:26:16;8.18;;;4.40;;
2438;SDS011;14509;47.992;7.848;2023-10-13T06:28:35;6.20;;;4.55;;
2438;SDS011;14509;47.992;7.848;2023-10-13T06:30:52;7.10;;;3.90;;
2438;SDS011;14509;47.992;7.848;2023-10-13T06:32:56;10.70;;;4.10;;
2438;SDS011;14509;47.992;7.848;2023-10-13T06:34:58;7.03;;;4.45;;
2438;SDS011;14509;47.992;7.848;2023-10-13T06:37:05;5.22;;;3.88;;
2438;SDS011;14509;47.992;7.848;2023-10-13T06:39:22;7.65;;;4.25;;
2438;SDS011;14509;47.992;7.848;2023-10-13T06:41:36;9.48;;;4.15;;
2438;SDS011;14509;47.992;7.848;2023-10-13T06:43:42;9.20;;;4.10;;
2438;SDS011;14509;47.992;7.848;2023-10-13T06:45:44;5.45;;;3.78;;
2438;SDS011;14509;47.992;7.848;2023-10-13T06:47:52;6.80;;;3.60;;
2438;SDS011;14509;47.992;7.848;2023-10-13T06:49:55;6.25;;;3.10;;
2438;SDS011;14509;47.992;7.848;2023-10-13T06:51:58;4.63;;;3.50;;
2438;SDS011;14509;47.992;7.848;2023-10-13T06:54:00;6.25;;;3.40;;
2438;SDS011;14509;47.992;7.848;2023-10-13T06:56:05;5.57;;;3.95;;
2438;SDS011;14509;47.992;7.848;2023-10-13T06:58:09;6.78;;;3.50;;
2438;SDS011;14509;47.992;7.848;2023-10-13T07:00:13;10.10;;;4.13;;
2438;SDS011;14509;47.992;7.848;2023-10-13T07:02:27;7.65;;;3.90;;
2438;SDS011;14509;47.992;7.848;2023-10-13T07:04:35;5.53;;;3.47;;
2438;SDS011;14509;47.992;7.848;2023-10-13T07:06:40;4.30;;;3.22;;
2438;SDS011;14509;47.992;7.848;2023-10-13T07:08:48;5.60;;;3.53;;
2438;SDS011;14509;47.992;7.848;2023-10-13T07:10:53;7.70;;;3.90;;
2438;SDS011;14509;47.992;7.848;2023-10-13T07:13:03;7.40;;;3.40;;
2438;SDS011;14509;47.992;7.848;2023-10-13T07:15:08;6.63;;;3.60;;
2438;SDS011;14509;47.992;7.848;2023-10-13T07:17:19;8.80;;;4.00;;
2438;SDS011;14509;47.992;7.848;2023-10-13T07:19:25;7.07;;;3.58;;
2438;SDS011;14509;47.992;7.848;2023-10-13T07:21:29;6.85;;;3.50;;
2438;SDS011;14509;47.992;7.848;2023-10-13T07:23:32;5.90;;;3.40;;
2438;SDS011;14509;47.992;7.848;2023-10-13T07:25:36;6.97;;;4.00;;
2438;SDS011;14509;47.992;7.848;2023-10-13T07:27:40;5.65;;;3.47;;
2438;SDS011;14509;47.992;7.848;2023-10-13T07:29:42;6.97;;;3.90;;
2438;SDS011;14509;47.992;7.848;2023-10-13T07:31:44;6.00;;;3.80;;
2438;SDS011;14509;47.992;7.848;2023-10-13T07:33:46;8.52;;;4.00;;
2438;SDS011;14509;47.992;7.848;2023-10-13T07:35:59;6.93;;;3.60;;
2438;SDS011;14509;47.992;7.848;2023-10-13T07:38:03;7.20;;;3.30;;
2438;SDS011;14509;47.992;7.848;2023-10-13T07:40:08;7.18;;;3.90;;
2438;SDS011;14509;47.992;7.848;2023-10-13T07:42:27;5.85;;;3.63;;
2438;SDS011;14509;47.992;7.848;2023-10-13T07:44:39;6.75;;;3.50;;
2438;SDS011;14509;47.992;7.848;2023-10-13T07:46:46;7.38;;;3.20;;
2438;SDS011;14509;47.992;7.848;2023-10-13T07:48:49;7.47;;;3.67;;
2438;SDS011;14509;47.992;7.848;2023-10-13T07:51:00;8.88;;;4.00;;
2438;SDS011;14509;47.992;7.848;2023-10-13T07:53:04;6.82;;;3.58;;
2438;SDS011;14509;47.992;7.848;2023-10-13T07:55:19;6.63;;;3.80;;
2438;SDS011;14509;47.992;7.848;2023-10-13T07:57:21;7.23;;;3.63;;
2438;SDS011;14509;47.992;7.848;2023-10-13T07:59:29;6.13;;;3.60;;
2438;SDS011;14509;47.992;7.848;2023-10-13T08:01:31;15.20;;;5.05;;
2438;SDS011;14509;47.992;7.848;2023-10-13T08:03:34;5.53;;;3.35;;
2438;SDS011;14509;47.992;7.848;2023-10-13T08:05:43;6.45;;;3.53;;
2438;SDS011;14509;47.992;7.848;2023-10-13T08:07:58;8.15;;;3.00;;
2438;SDS011;14509;47.992;7.848;2023-10-13T08:10:01;8.35;;;4.97;;
2438;SDS011;14509;47.992;7.848;2023-10-13T08:12:04;7.45;;;3.50;;
2438;SDS011;14509;47.992;7.848;2023-10-13T08:14:10;7.30;;;4.13;;
2438;SDS011;14509;47.992;7.848;2023-10-13T08:16:18;10.07;;;3.63;;
2438;SDS011;14509;47.992;7.848;2023-10-13T08:18:22;8.10;;;3.88;;
2438;SDS011;14509;47.992;7.848;2023-10-13T08:20:31;7.40;;;3.67;;
2438;SDS011;14509;47.992;7.848;2023-10-13T08:22:38;8.25;;;4.07;;
2438;SDS011;14509;47.992;7.848;2023-10-13T08:24:47;7.75;;;3.75;;
2438;SDS011;14509;47.992;7.848;2023-10-13T08:27:09;8.90;;;4.03;;
2438;SDS011;14509;47.992;7.848;2023-10-13T08:29:31;10.30;;;4.28;;
2438;SDS011;14509;47.992;7.848;2023-10-13T08:31:51;11.55;;;4.63;;
2438;SDS011;14509;47.992;7.848;2023-10-13T08:34:14;16.55;;;4.80;;
2438;SDS011;14509;47.992;7.848;2023-10-13T08:36:23;11.15;;;4.53;;
2438;SDS011;14509;47.992;7.848;2023-10-13T08:38:29;8.73;;;3.80;;
2438;SDS011;14509;47.992;7.848;2023-10-13T08:40:44;12.82;;;6.45;;
2438;SDS011;14509;47.992;7.848;2023-10-13T08:43:01;7.15;;;4.78;;
2438;SDS011;14509;47.992;7.848;2023-10-13T08:45:13;7.88;;;3.90;;
2438;SDS011;14509;47.992;7.848;2023-10-13T08:47:42;7.88;;;4.13;;
2438;SDS011;14509;47.992;7.848;2023-10-13T08:49:53;7.28;;;4.50;;
2438;SDS011;14509;47.992;7.848;2023-10-13T08:52:10;8.35;;;4.40;;
2438;SDS011;14509;47.992;7.848;2023-10-13T08:54:35;11.30;;;4.25;;
2438;SDS011;14509;47.992;7.848;2023-10-13T08:56:46;8.60;;;4.30;;
2438;SDS011;14509;47.992;7.848;2023-10-13T08:58:56;9.02;;;3.83;;
2438;SDS011;14509;47.992;7.848;2023-10-13T09:01:05;7.90;;;3.40;;
2438;SDS011;14509;47.992;7.848;2023-10-13T09:03:11;6.67;;;3.60;;
2438;SDS011;14509;47.992;7.848;2023-10-13T09:05:38;6.50;;;3.58;;
2438;SDS011;14509;47.992;7.848;2023-10-13T09:07:44;6.25;;;4.00;;
2438;SDS011;14509;47.992;7.848;2023-10-13T09:09:48;15.73;;;4.53;;
2438;SDS011;14509;47.992;7.848;2023-10-13T09:12:10;11.13;;;3.90;;
2438;SDS011;14509;47.992;7.848;2023-10-13T09:14:15;8.13;;;3.70;;
2438;SDS011;14509;47.992;7.848;2023-10-13T09:16:33;6.20;;;3.47;;
2438;SDS011;14509;47.992;7.848;2023-10-13T09:18:49;9.70;;;4.00;;
2438;SDS011;14509;47.992;7.848;2023-10-13T09:20:59;9.80;;;3.70;;
2438;SDS011;14509;47.992;7.848;2023-10-13T09:23:20;7.55;;;3.58;;
2438;SDS011;14509;47.992;7.848;2023-10-13T09:25:25;7.20;;;3.40;;
2438;SDS011;14509;47.992;7.848;2023-10-13T09:27:33;7.82;;;3.78;;
2438;SDS011;14509;47.992;7.848;2023-10-13T09:29:39;9.27;;;3.83;;
2438;SDS011;14509;47.992;7.848;2023-10-13T09:31:42;9.07;;;3.90;;
2438;SDS011;14509;47.992;7.848;2023-10-13T09:33:45;7.43;;;4.10;;
2438;SDS011;14509;47.992;7.848;2023-10-13T09:35:50;5.28;;;3.50;;
2438;SDS011;14509;47.992;7.848;2023-10-13T09:37:54;7.10;;;3.25;;
2438;SDS011;14509;47.992;7.848;2023-10-13T09:39:58;9.43;;;3.70;;
2438;SDS011;14509;47.992;7.848;2023-10-13T09:42:21;6.90;;;3.20;;
2438;SDS011;14509;47.992;7.848;2023-10-13T09:44:23;8.65;;;3.53;;
2438;SDS011;14509;47.992;7.848;2023-10-13T09:46:31;9.90;;;4.50;;
2438;SDS011;14509;47.992;7.848;2023-10-13T09:48:43;9.45;;;3.50;;
2438;SDS011;14509;47.992;7.848;2023-10-13T09:50:47;10.38;;;3.40;;
2438;SDS011;14509;47.992;7.848;2023-10-13T09:52:49;7.05;;;4.20;;
2438;SDS011;14509;47.992;7.848;2023-10-13T09:57:26;10.77;;;3.67;;
2438;SDS011;14509;47.992;7.848;2023-10-13T09:59:44;7.43;;;3.47;;
2438;SDS011;14509;47.992;7.848;2023-10-13T10:01:53;8.15;;;3.85;;
2438;SDS011;14509;47.992;7.848;2023-10-13T10:04:06;9.45;;;4.10;;
2438;SDS011;14509;47.992;7.848;2023-10-13T10:06:09;6.63;;;3.92;;
2438;SDS011;14509;47.992;7.848;2023-10-13T10:08:24;9.35;;;3.90;;
2438;SDS011;14509;47.992;7.848;2023-10-13T10:10:42;7.47;;;3.80;;
2438;SDS011;14509;47.992;7.848;2023-10-13T10:12:59;9.48;;;4.72;;
2438;SDS011;14509;47.992;7.848;2023-10-13T10:15:09;13.73;;;4.30;;
2438;SDS011;14509;47.992;7.848;2023-10-13T10:17:29;6.10;;;3.40;;
2438;SDS011;14509;47.992;7.848;2023-10-13T10:19:46;6.15;;;3.50;;
2438;SDS011;14509;47.992;7.848;2023-10-13T10:21:49;7.95;;;3.72;;
2438;SDS011;14509;47.992;7.848;2023-10-13T10:23:52;6.28;;;3.28;;
2438;SDS011;14509;47.992;7.848;2023-10-13T10:25:54;8.00;;;3.60;;
2438;SDS011;14509;47.992;7.848;2023-10-13T10:28:08;5.00;;;3.17;;
2438;SDS011;14509;47.992;7.848;2023-10-13T10:30:10;6.60;;;3.25;;
2438;SDS011;14509;47.992;7.848;2023-10-13T10:32:13;5.43;;;3.38;;
2438;SDS011;14509;47.992;7.848;2023-10-13T10:34:17;6.40;;;3.35;;
2438;SDS011;14509;47.992;7.848;2023-10-13T10:36:28;4.55;;;2.90;;
2438;SDS011;14509;47.992;7.848;2023-10-13T10:38:30;8.18;;;3.58;;
2438;SDS011;14509;47.992;7.848;2023-10-13T10:40:34;6.20;;;3.10;;
2438;SDS011;14509;47.992;7.848;2023-10-13T10:42:50;6.18;;;2.80;;
2438;SDS011;14509;47.992;7.848;2023-10-13T10:44:52;5.75;;;3.35;;
2438;SDS011;14509;47.992;7.848;2023-10-13T10:47:07;6.63;;;3.47;;
2438;SDS011;14509;47.992;7.848;2023-10-13T10:49:10;4.82;;;2.80;;
2438;SDS011;14509;47.992;7.848;2023-10-13T10:51:14;5.13;;;2.80;;
2438;SDS011;14509;47.992;7.848;2023-10-13T10:53:21;6.90;;;2.83;;
2438;SDS011;14509;47.992;7.848;2023-10-13T10:55:22;6.82;;;3.33;;
2438;SDS011;14509;47.992;7.848;2023-10-13T10:57:28;8.00;;;3.88;;
2438;SDS011;14509;47.992;7.848;2023-10-13T10:59:37;4.95;;;3.65;;
2438;SDS011;14509;47.992;7.848;2023-10-13T11:01:43;4.43;;;3.05;;
2438;SDS011;14509;47.992;7.848;2023-10-13T11:03:53;7.20;;;3.45;;
2438;SDS011;14509;47.992;7.848;2023-10-13T11:05:57;4.85;;;2.80;;
2438;SDS011;14509;47.992;7.848;2023-10-13T11:08:00;4.82;;;3.20;;
2438;SDS011;14509;47.992;7.848;2023-10-13T11:10:09;5.47;;;3.40;;
2438;SDS011;14509;47.992;7.848;2023-10-13T11:12:20;5.63;;;3.15;;
2438;SDS011;14509;47.992;7.848;2023-10-13T11:14:25;6.75;;;3.25;;
2438;SDS011;14509;47.992;7.848;2023-10-13T11:16:28;5.18;;;3.30;;
2438;SDS011;14509;47.992;7.848;2023-10-13T11:18:34;5.25;;;3.50;;
2438;SDS011;14509;47.992;7.848;2023-10-13T11:20:41;4.75;;;3.20;;
2438;SDS011;14509;47.992;7.848;2023-10-13T11:22:47;7.43;;;3.22;;
2438;SDS011;14509;47.992;7.848;2023-10-13T11:24:51;8.65;;;3.90;;
2438;SDS011;14509;47.992;7.848;2023-10-13T11:26:54;6.35;;;3.00;;
2438;SDS011;14509;47.992;7.848;2023-10-13T11:28:56;4.32;;;3.10;;
2438;SDS011;14509;47.992;7.848;2023-10-13T11:30:59;6.40;;;3.50;;
2438;SDS011;14509;47.992;7.848;2023-10-13T11:33:11;6.03;;;3.00;;
2438;SDS011;14509;47.992;7.848;2023-10-13T11:35:18;6.05;;;3.38;;
2438;SDS011;14509;47.992;7.848;2023-10-13T11:37:21;4.35;;;2.92;;
2438;SDS011;14509;47.992;7.848;2023-10-13T11:39:38;5.50;;;3.20;;
2438;SDS011;14509;47.992;7.848;2023-10-13T11:41:44;5.90;;;3.50;;
2438;SDS011;14509;47.992;7.848;2023-10-13T11:43:54;6.47;;;3.70;;
2438;SDS011;14509;47.992;7.848;2023-10-13T11:46:13;6.13;;;3.40;;
2438;SDS011;14509;47.992;7.848;2023-10-13T11:48:16;5.82;;;3.35;;
2438;SDS011;14509;47.992;7.848;2023-10-13T11:50:17;4.35;;;2.90;;
2438;SDS011;14509;47.992;7.848;2023-10-13T11:52:32;4.83;;;3.10;;
2438;SDS011;14509;47.992;7.848;2023-10-13T11:54:34;5.80;;;3.47;;
2438;SDS011;14509;47.992;7.848;2023-10-13T11:56:36;7.35;;;3.15;;
2438;SDS011;14509;47.992;7.848;2023-10-13T11:58:40;6.82;;;3.58;;
2438;SDS011;14509;47.992;7.848;2023-10-13T12:00:42;5.18;;;2.95;;
2438;SDS011;14509;47.992;7.848;2023-10-13T12:03:01;7.00;;;3.40;;
2438;SDS011;14509;47.992;7.848;2023-10-13T12:05:21;5.00;;;2.90;;
2438;SDS011;14509;47.992;7.848;2023-10-13T12:07:30;4.70;;;3.60;;
2438;SDS011;14509;47.992;7.848;2023-10-13T12:09:46;4.75;;;3.40;;
2438;SDS011;14509;47.992;7.848;2023-10-13T12:12:06;4.90;;;3.30;;
2438;SDS011;14509;47.992;7.848;2023-10-13T12:14:10;4.72;;;3.20;;
2438;SDS011;14509;47.992;7.848;2023-10-13T12:16:20;5.38;;;3.05;;
2438;SDS011;14509;47.992;7.848;2023-10-13T12:18:22;6.00;;;3.50;;
2438;SDS011;14509;47.992;7.848;2023-10-13T12:20:28;4.80;;;3.40;;
2438;SDS011;14509;47.992;7.848;2023-10-13T12:22:35;9.50;;;3.30;;
2438;SDS011;14509;47.992;7.848;2023-10-13T12:24:39;6.40;;;3.10;;
2438;SDS011;14509;47.992;7.848;2023-10-13T12:26:42;7.30;;;3.20;;
2438;SDS011;14509;47.992;7.848;2023-10-13T12:28:44;5.78;;;2.88;;
2438;SDS011;14509;47.992;7.848;2023-10-13T12:30:54;6.00;;;3.00;;
2438;SDS011;14509;47.992;7.848;2023-10-13T12:32:57;6.40;;;3.30;;
2438;SDS011;14509;47.992;7.848;2023-10-13T12:35:08;5.10;;;3.10;;
2438;SDS011;14509;47.992;7.848;2023-10-13T12:37:30;4.85;;;3.30;;
2438;SDS011;14509;47.992;7.848;2023-10-13T12:39:49;6.70;;;3.20;;
2438;SDS011;14509;47.992;7.848;2023-10-13T12:42:08;3.22;;;2.50;;
2438;SDS011;14509;47.992;7.848;2023-10-13T12:44:33;6.28;;;2.92;;
2438;SDS011;14509;47.992;7.848;2023-10-13T12:46:54;6.40;;;3.30;;
2438;SDS011;14509;47.992;7.848;2023-10-13T12:49:13;4.57;;;3.15;;
2438;SDS011;14509;47.992;7.848;2023-10-13T12:51:37;4.57;;;3.00;;
2438;SDS011;14509;47.992;7.848;2023-10-13T12:53:51;8.48;;;3.45;;
2438;SDS011;14509;47.992;7.848;2023-10-13T12:55:54;5.43;;;3.25;;
2438;SDS011;14509;47.992;7.848;2023-10-13T12:57:56;5.25;;;3.55;;
2438;SDS011;14509;47.992;7.848;2023-10-13T12:59:58;4.85;;;2.90;;
2438;SDS011;14509;47.992;7.848;2023-10-13T13:02:03;5.00;;;2.95;;
2438;SDS011;14509;47.992;7.848;2023-10-13T13:04:07;3.50;;;2.85;;
2438;SDS011;14509;47.992;7.848;2023-10-13T13:06:18;5.70;;;3.00;;
2438;SDS011;14509;47.992;7.848;2023-10-13T13:08:25;5.97;;;2.97;;
2438;SDS011;14509;47.992;7.848;2023-10-13T13:10:27;5.22;;;3.28;;
2438;SDS011;14509;47.992;7.848;2023-10-13T13:12:37;4.35;;;2.88;;